Time;durP1;ratioP1;P1;durP2;ratioP2;P2;SDS_P1;SDS_P2;PMS_P1;PMS_P2;Temp;Humidity;BMP_temperature;BMP_pressure;BME280_temperature;BME280_humidity;BME280_pressure;Samples;Min_cycle;Max_cycle;Signal;HPM_P1;HPM_P2
2022/11/29 00:01:12;;;;;;;503.65;36.97;;;8.00;99.90;;;;;;5065618;28;20107;-68
2022/11/29 00:03:38;;;;;;;582.45;39.10;;;8.00;99.90;;;;;;5049449;28;20047;-68
2022/11/29 00:06:07;;;;;;;642.55;44.63;;;8.00;99.90;;;;;;5066387;28;20410;-68
2022/11/29 00:08:33;;;;;;;763.22;45.55;;;8.00;99.90;;;;;;5049720;28;20060;-68
2022/11/29 00:11:07;;;;;;;497.35;37.13;;;8.00;99.90;;;;;;5049058;28;20783;-68
2022/11/29 00:13:33;;;;;;;254.38;29.40;;;8.00;99.90;;;;;;5065292;28;20052;-68
2022/11/29 00:16:10;;;;;;;566.00;42.25;;;8.00;99.90;;;;;;5048708;28;20049;-68
2022/11/29 00:18:37;;;;;;;561.17;40.28;;;8.00;99.90;;;;;;5047503;28;20059;-68
2022/11/29 00:21:07;;;;;;;612.78;41.03;;;8.00;99.90;;;;;;5016277;28;20048;-69
2022/11/29 00:23:33;;;;;;;468.27;37.17;;;8.00;99.90;;;;;;5047660;28;20145;-68
2022/11/29 00:26:07;;;;;;;599.92;42.33;;;8.00;99.90;;;;;;5066207;28;20453;-68
2022/11/29 00:28:33;;;;;;;554.78;41.05;;;8.00;99.90;;;;;;5032656;28;20127;-68
2022/11/29 00:30:59;;;;;;;481.08;37.97;;;8.10;99.90;;;;;;5065570;28;20406;-69
2022/11/29 00:33:25;;;;;;;794.60;46.88;;;8.00;99.90;;;;;;5049102;28;20040;-68
2022/11/29 00:35:51;;;;;;;614.58;43.05;;;8.00;99.90;;;;;;5065370;28;20041;-68
2022/11/29 00:38:17;;;;;;;466.73;37.40;;;8.00;99.90;;;;;;5032659;28;20053;-68
2022/11/29 00:40:42;;;;;;;569.72;40.72;;;8.00;99.90;;;;;;5066078;28;20048;-68
2022/11/29 00:43:08;;;;;;;510.48;37.65;;;8.10;99.90;;;;;;5048885;28;20475;-68
2022/11/29 00:45:34;;;;;;;484.50;39.25;;;8.00;99.90;;;;;;5048857;28;20048;-68
2022/11/29 00:48:00;;;;;;;571.92;41.88;;;8.00;99.90;;;;;;5047835;28;20128;-69
2022/11/29 00:50:26;;;;;;;542.00;39.65;;;8.00;99.90;;;;;;5067174;28;20048;-69
2022/11/29 00:52:51;;;;;;;549.88;40.92;;;8.00;99.90;;;;;;5047198;28;20113;-68
2022/11/29 00:55:17;;;;;;;445.67;36.92;;;8.00;99.90;;;;;;5067131;28;20063;-69
2022/11/29 00:57:43;;;;;;;350.30;33.53;;;8.00;99.90;;;;;;5047762;28;20072;-68
2022/11/29 01:00:09;;;;;;;413.98;36.55;;;8.00;99.90;;;;;;5066746;28;20044;-69
2022/11/29 01:02:35;;;;;;;358.15;33.15;;;8.00;99.90;;;;;;5059267;28;20045;-68
2022/11/29 01:05:00;;;;;;;448.33;36.55;;;8.00;99.90;;;;;;5046650;28;20043;-68
2022/11/29 01:07:26;;;;;;;407.85;36.22;;;8.00;99.90;;;;;;5049188;28;20048;-68
2022/11/29 01:09:51;;;;;;;452.17;36.40;;;8.00;99.90;;;;;;5065306;28;20052;-68
2022/11/29 01:12:17;;;;;;;630.13;39.95;;;8.00;99.90;;;;;;5067849;28;20052;-69
2022/11/29 01:14:43;;;;;;;451.13;36.17;;;8.00;99.90;;;;;;5055754;28;20052;-69
2022/11/29 01:17:09;;;;;;;367.65;31.92;;;7.90;99.90;;;;;;5070405;28;20049;-68
2022/11/29 01:19:36;;;;;;;325.25;30.42;;;7.90;99.90;;;;;;5051504;28;20526;-68
2022/11/29 01:22:02;;;;;;;680.20;38.65;;;8.00;99.90;;;;;;5069740;28;20058;-69
2022/11/29 01:24:29;;;;;;;558.03;37.10;;;8.00;99.90;;;;;;5068709;28;20048;-68
2022/11/29 01:26:55;;;;;;;406.85;34.63;;;8.00;99.90;;;;;;5049907;28;20120;-68
2022/11/29 01:29:20;;;;;;;531.47;38.40;;;7.90;99.90;;;;;;5068114;28;20124;-69
2022/11/29 01:31:46;;;;;;;230.65;27.55;;;7.90;99.90;;;;;;5050457;28;20044;-69
2022/11/29 01:34:12;;;;;;;262.67;29.27;;;7.90;99.90;;;;;;5050836;28;20048;-69
2022/11/29 01:36:38;;;;;;;320.80;30.75;;;7.90;99.90;;;;;;5067570;28;20422;-69
2022/11/29 01:39:05;;;;;;;327.20;32.03;;;7.90;99.90;;;;;;5051744;28;20041;-68
2022/11/29 01:41:33;;;;;;;354.25;31.80;;;7.90;99.90;;;;;;5035408;28;20044;-68
2022/11/29 01:44:02;;;;;;;379.45;31.70;;;7.90;99.90;;;;;;5068517;28;20045;-69
2022/11/29 01:46:33;;;;;;;226.25;27.90;;;7.90;99.90;;;;;;5070111;28;20121;-69
2022/11/29 01:49:14;;;;;;;234.43;28.75;;;7.90;99.90;;;;;;5045671;28;20044;-68
2022/11/29 01:51:47;;;;;;;262.92;29.90;;;7.90;99.90;;;;;;5048783;28;20083;-69
2022/11/29 01:54:14;;;;;;;295.45;30.80;;;7.90;99.90;;;;;;5052579;28;20131;-68
2022/11/29 01:56:42;;;;;;;235.35;28.63;;;7.90;99.90;;;;;;5050815;28;20544;-69
2022/11/29 01:59:15;;;;;;;179.23;24.05;;;7.90;99.90;;;;;;5051481;28;20088;-68
2022/11/29 02:01:41;;;;;;;197.70;25.23;;;7.90;99.90;;;;;;5050536;28;20052;-69
2022/11/29 02:04:07;;;;;;;195.50;25.98;;;7.80;99.90;;;;;;5069610;28;20098;-68
2022/11/29 02:06:34;;;;;;;210.73;26.10;;;7.80;99.90;;;;;;5078110;28;20461;-69
2022/11/29 02:09:00;;;;;;;200.18;24.98;;;7.80;99.90;;;;;;5035016;28;20469;-69
2022/11/29 02:12:01;;;;;;;191.93;24.40;;;7.80;99.90;;;;;;5050998;28;20048;-68
2022/11/29 02:14:27;;;;;;;165.35;22.25;;;7.80;99.90;;;;;;4995509;28;20052;-68
2022/11/29 02:17:31;;;;;;;159.18;22.08;;;7.80;99.90;;;;;;5051138;28;20402;-69
2022/11/29 02:20:22;;;;;;;159.15;21.98;;;7.80;99.90;;;;;;5018377;28;20064;-69
2022/11/29 02:23:26;;;;;;;147.30;21.40;;;7.80;99.90;;;;;;5046886;28;20558;-69
2022/11/29 02:26:03;;;;;;;172.68;22.45;;;7.80;99.90;;;;;;5047620;28;20060;-68
2022/11/29 02:29:17;;;;;;;257.75;25.30;;;7.80;99.90;;;;;;5047249;28;20059;-69
2022/11/29 02:32:07;;;;;;;536.70;31.95;;;7.80;99.90;;;;;;5043882;28;20064;-69
2022/11/29 02:34:40;;;;;;;;;;;7.80;99.90;;;;;;5048560;28;20045;-69
2022/11/29 02:37:28;;;;;;;626.80;31.30;;;7.70;99.90;;;;;;5045802;28;20406;-68
2022/11/29 02:40:00;;;;;;;642.75;32.25;;;7.70;99.90;;;;;;5045464;28;20114;-69
2022/11/29 02:43:13;;;;;;;573.58;28.05;;;7.70;99.90;;;;;;5049091;28;20410;-68
2022/11/29 02:45:59;;;;;;;463.50;28.63;;;7.70;99.90;;;;;;5013618;28;20088;-68
2022/11/29 02:48:45;;;;;;;446.52;25.35;;;7.70;99.90;;;;;;5047025;28;20044;-68
2022/11/29 02:51:33;;;;;;;463.67;27.02;;;7.70;99.90;;;;;;5046101;28;20059;-69
2022/11/29 02:54:19;;;;;;;385.65;23.98;;;7.70;99.90;;;;;;5034588;28;20048;-69
2022/11/29 02:57:03;;;;;;;427.73;24.38;;;7.70;99.90;;;;;;5047334;28;20049;-68
2022/11/29 02:59:58;;;;;;;358.98;22.52;;;7.70;99.90;;;;;;5047920;28;20056;-69
2022/11/29 03:02:38;;;;;;;451.98;25.15;;;7.70;99.90;;;;;;5043079;28;20056;-69
2022/11/29 03:05:21;;;;;;;394.50;25.58;;;7.70;99.90;;;;;;5030414;28;20098;-69
2022/11/29 03:08:08;;;;;;;406.83;26.33;;;7.70;99.90;;;;;;5047507;28;20110;-69
2022/11/29 03:10:52;;;;;;;365.52;25.73;;;7.70;99.90;;;;;;5046383;28;20383;-68
2022/11/29 03:14:03;;;;;;;340.48;24.48;;;7.70;99.90;;;;;;5044833;28;20048;-68
2022/11/29 03:17:04;;;;;;;198.90;21.88;;;7.70;99.90;;;;;;5012436;28;20544;-68
2022/11/29 03:19:46;;;;;;;246.02;22.40;;;7.70;99.90;;;;;;5042085;28;21327;-69
2022/11/29 03:22:41;;;;;;;261.83;23.75;;;7.70;99.90;;;;;;5028172;28;20593;-69
2022/11/29 03:25:23;;;;;;;334.92;27.92;;;7.70;99.90;;;;;;5015275;28;20132;-69
2022/11/29 03:28:02;;;;;;;238.20;25.23;;;7.70;99.90;;;;;;5025498;28;20389;-69
2022/11/29 03:30:31;;;;;;;213.02;24.35;;;7.70;99.90;;;;;;5026973;28;20108;-68
2022/11/29 03:33:23;;;;;;;145.65;21.65;;;7.70;99.90;;;;;;5009184;28;20060;-69
2022/11/29 03:36:22;;;;;;;141.93;23.95;;;7.70;99.90;;;;;;5010109;28;20057;-69
2022/11/29 03:38:53;;;;;;;163.48;22.40;;;7.70;99.90;;;;;;5027297;28;20516;-69
2022/11/29 03:41:31;;;;;;;122.30;19.90;;;7.70;99.90;;;;;;5026844;28;20389;-68
2022/11/29 03:44:16;;;;;;;142.15;23.33;;;7.70;99.90;;;;;;5026692;28;20051;-69
2022/11/29 03:47:04;;;;;;;125.15;20.80;;;7.70;99.90;;;;;;5010252;28;20084;-69
2022/11/29 03:49:36;;;;;;;121.00;20.73;;;7.70;99.90;;;;;;5008464;28;20052;-69
2022/11/29 03:52:32;;;;;;;144.20;21.65;;;7.70;99.90;;;;;;5010458;28;20045;-69
2022/11/29 03:55:26;;;;;;;131.07;22.10;;;7.70;99.90;;;;;;5025886;28;20057;-69
2022/11/29 03:58:22;;;;;;;122.45;21.25;;;7.70;99.90;;;;;;5026908;28;20049;-69
2022/11/29 04:00:48;;;;;;;135.13;21.15;;;7.70;99.90;;;;;;5026731;28;20041;-69
2022/11/29 04:03:29;;;;;;;135.50;21.67;;;7.70;99.90;;;;;;5026386;28;20085;-69
2022/11/29 04:06:23;;;;;;;128.23;20.63;;;7.70;99.90;;;;;;5025436;28;20080;-70
2022/11/29 04:08:57;;;;;;;114.90;20.45;;;7.70;99.90;;;;;;5026223;28;20046;-69
2022/11/29 04:11:55;;;;;;;134.80;21.50;;;7.70;99.90;;;;;;5025985;28;20055;-69
2022/11/29 04:14:32;;;;;;;151.18;22.05;;;7.70;99.90;;;;;;5025590;28;20475;-69
2022/11/29 04:17:15;;;;;;;154.15;22.85;;;7.60;99.90;;;;;;5025731;28;20137;-69
2022/11/29 04:20:19;;;;;;;129.05;20.73;;;7.70;99.90;;;;;;5025062;28;20053;-68
2022/11/29 04:23:11;;;;;;;132.80;21.00;;;7.60;99.90;;;;;;5026039;28;20041;-69
2022/11/29 04:26:25;;;;;;;135.50;20.15;;;7.60;99.90;;;;;;5009004;28;20107;-69
2022/11/29 04:29:08;;;;;;;149.48;21.52;;;7.60;99.90;;;;;;5016057;28;20487;-69
2022/11/29 04:31:56;;;;;;;132.02;23.20;;;7.60;99.90;;;;;;5025621;28;20508;-69
2022/11/29 04:34:43;;;;;;;116.45;19.73;;;7.60;99.90;;;;;;5027006;28;20053;-68
2022/11/29 04:37:34;;;;;;;131.10;20.90;;;7.60;99.90;;;;;;5025831;28;20358;-69
2022/11/29 04:40:25;;;;;;;131.90;21.00;;;7.60;99.90;;;;;;5026331;28;20053;-69
2022/11/29 04:43:12;;;;;;;117.22;20.17;;;7.60;99.90;;;;;;5026097;28;20065;-68
2022/11/29 04:45:53;;;;;;;117.70;19.92;;;7.60;99.90;;;;;;5024463;28;20475;-69
2022/11/29 04:48:35;;;;;;;115.55;20.65;;;7.60;99.90;;;;;;5028273;28;20041;-69
2022/11/29 04:51:38;;;;;;;128.45;20.90;;;7.60;99.90;;;;;;5013043;28;20057;-69
2022/11/29 04:54:29;;;;;;;119.43;21.58;;;7.60;99.90;;;;;;5028501;28;20071;-69
2022/11/29 04:57:43;;;;;;;103.93;19.88;;;7.60;99.90;;;;;;5030036;28;20458;-69
2022/11/29 05:00:10;;;;;;;107.68;19.95;;;7.60;99.90;;;;;;5026852;28;20053;-69
2022/11/29 05:02:57;;;;;;;111.03;19.67;;;7.60;99.90;;;;;;5028027;28;20049;-69
2022/11/29 05:05:30;;;;;;;121.72;20.85;;;7.60;99.90;;;;;;5029675;28;20194;-69
2022/11/29 05:08:26;;;;;;;113.25;19.30;;;7.60;99.90;;;;;;5028408;28;20391;-69
2022/11/29 05:11:24;;;;;;;122.97;19.40;;;7.60;99.90;;;;;;5026522;28;20041;-69
2022/11/29 05:14:09;;;;;;;143.35;20.08;;;7.60;99.90;;;;;;5024025;28;20419;-69
2022/11/29 05:16:45;;;;;;;147.05;20.08;;;7.60;99.90;;;;;;5027918;28;20514;-69
2022/11/29 05:19:11;;;;;;;128.40;21.05;;;7.60;99.90;;;;;;5030008;28;20060;-69
2022/11/29 05:22:27;;;;;;;126.90;20.52;;;7.60;99.90;;;;;;5035622;28;20052;-69
2022/11/29 05:25:11;;;;;;;125.13;18.98;;;7.60;99.90;;;;;;4990907;28;20080;-69
2022/11/29 05:27:43;;;;;;;118.78;20.15;;;7.60;99.90;;;;;;5035516;28;20052;-69
2022/11/29 05:30:19;;;;;;;113.70;19.33;;;7.60;99.90;;;;;;5051592;28;20086;-69
2022/11/29 05:33:03;;;;;;;90.50;18.35;;;7.60;99.90;;;;;;5050892;28;20048;-69
2022/11/29 05:35:48;;;;;;;101.75;19.08;;;7.60;99.90;;;;;;5068738;28;20084;-68
2022/11/29 05:38:58;;;;;;;88.00;17.85;;;7.60;99.90;;;;;;5056093;28;20472;-69
2022/11/29 05:41:42;;;;;;;106.43;18.33;;;7.60;99.90;;;;;;5033452;28;20055;-69
2022/11/29 05:44:29;;;;;;;85.18;17.42;;;7.60;99.90;;;;;;5035883;28;20041;-69
2022/11/29 05:47:04;;;;;;;92.25;17.83;;;7.60;99.90;;;;;;5050885;28;20040;-69
2022/11/29 05:49:38;;;;;;;100.80;18.75;;;7.60;99.90;;;;;;5051436;28;20048;-69
2022/11/29 05:52:16;;;;;;;84.50;16.27;;;7.60;99.90;;;;;;5052263;28;20431;-68
2022/11/29 05:55:13;;;;;;;94.82;18.17;;;7.60;99.90;;;;;;5048789;28;20044;-68
2022/11/29 05:57:53;;;;;;;92.82;18.73;;;7.60;99.90;;;;;;5069269;28;20074;-69
2022/11/29 06:00:19;;;;;;;96.18;17.85;;;7.60;99.90;;;;;;5034400;28;20053;-68
2022/11/29 06:03:20;;;;;;;92.68;18.48;;;7.60;99.90;;;;;;5049915;28;20040;-69
2022/11/29 06:05:59;;;;;;;87.55;17.35;;;7.60;99.90;;;;;;5035124;28;20064;-69
2022/11/29 06:08:38;;;;;;;82.72;18.35;;;7.60;99.90;;;;;;5050547;28;20137;-69
2022/11/29 06:11:29;;;;;;;86.13;18.05;;;7.60;99.90;;;;;;5051550;28;20399;-68
2022/11/29 06:14:30;;;;;;;73.07;16.85;;;7.50;99.90;;;;;;5051936;28;20068;-69
2022/11/29 06:17:05;;;;;;;80.05;17.50;;;7.50;99.90;;;;;;5050511;28;20052;-69
2022/11/29 06:19:58;;;;;;;80.40;17.50;;;7.50;99.90;;;;;;5050882;28;20560;-68
2022/11/29 06:22:42;;;;;;;90.93;19.88;;;7.50;99.90;;;;;;5051602;28;20528;-68
2022/11/29 06:25:47;;;;;;;96.97;19.98;;;7.50;99.90;;;;;;5046263;28;20269;-68
2022/11/29 06:28:26;;;;;;;88.80;18.85;;;7.50;99.90;;;;;;5019172;28;20139;-69
2022/11/29 06:31:28;;;;;;;86.28;20.63;;;7.50;99.90;;;;;;5050639;28;20114;-68
2022/11/29 06:34:09;;;;;;;94.57;20.35;;;7.50;99.90;;;;;;5040663;28;20664;-69
2022/11/29 06:36:47;;;;;;;109.53;21.35;;;7.50;99.90;;;;;;5049625;28;20052;-69
2022/11/29 06:39:13;;;;;;;78.45;18.92;;;7.50;99.90;;;;;;5052430;28;20079;-68
2022/11/29 06:41:38;;;;;;;87.72;19.17;;;7.50;99.90;;;;;;5051596;28;20048;-69
2022/11/29 06:44:05;;;;;;;99.55;20.52;;;7.50;99.90;;;;;;5034514;28;20052;-68
2022/11/29 06:46:46;;;;;;;93.80;20.15;;;7.50;99.90;;;;;;5033230;28;20048;-68
2022/11/29 06:49:30;;;;;;;107.93;22.08;;;7.50;99.90;;;;;;5051410;28;20051;-69
2022/11/29 06:52:21;;;;;;;97.93;20.67;;;7.50;99.90;;;;;;5049007;28;20040;-69
2022/11/29 06:55:11;;;;;;;92.38;20.75;;;7.50;99.90;;;;;;5036052;28;20097;-69
2022/11/29 06:57:57;;;;;;;;;;;7.50;99.90;;;;;;5051472;28;20103;-68
2022/11/29 07:00:27;;;;;;;90.40;17.60;;;7.50;99.90;;;;;;5046002;28;19920;-69
2022/11/29 07:03:41;;;;;;;85.47;19.57;;;7.50;99.90;;;;;;5050440;28;20079;-69
2022/11/29 07:06:26;;;;;;;86.50;18.85;;;7.50;99.90;;;;;;5038013;28;20060;-68
2022/11/29 07:09:00;;;;;;;84.85;18.90;;;7.50;99.90;;;;;;5032412;28;20040;-68
2022/11/29 07:11:26;;;;;;;90.20;19.33;;;7.50;99.90;;;;;;5066733;28;20037;-68
2022/11/29 07:13:53;;;;;;;106.90;20.10;;;7.50;99.90;;;;;;5071542;28;20052;-68
2022/11/29 07:16:38;;;;;;;136.05;21.73;;;7.50;99.90;;;;;;5049489;28;20135;-69
2022/11/29 07:19:07;;;;;;;71.20;18.17;;;7.60;99.90;;;;;;5054925;28;20067;-69
2022/11/29 07:21:42;;;;;;;96.78;21.83;;;7.50;99.90;;;;;;5067010;28;20075;-68
2022/11/29 07:24:28;;;;;;;73.68;18.10;;;7.50;99.90;;;;;;5056038;28;20553;-69
2022/11/29 07:27:10;;;;;;;84.00;19.48;;;7.50;99.90;;;;;;5033516;28;20044;-69
2022/11/29 07:30:08;;;;;;;82.07;18.08;;;7.60;99.90;;;;;;5048596;28;20048;-69
2022/11/29 07:32:53;;;;;;;81.22;18.75;;;7.60;99.90;;;;;;5050232;28;20083;-69
2022/11/29 07:35:29;;;;;;;73.43;17.92;;;7.60;99.90;;;;;;5032940;28;20070;-68
2022/11/29 07:38:14;;;;;;;71.22;18.55;;;7.60;99.90;;;;;;5048625;28;20478;-68
2022/11/29 07:41:04;;;;;;;73.40;17.95;;;7.60;99.90;;;;;;5046804;28;20060;-68
2022/11/29 07:43:44;;;;;;;60.95;16.80;;;7.50;99.90;;;;;;5048801;28;20055;-69
2022/11/29 07:46:10;;;;;;;58.67;16.45;;;7.60;99.90;;;;;;5049677;28;20514;-69
2022/11/29 07:48:35;;;;;;;70.70;16.67;;;7.50;99.90;;;;;;5050015;28;20040;-69
2022/11/29 07:51:01;;;;;;;70.07;17.40;;;7.60;99.90;;;;;;5015466;28;20498;-69
2022/11/29 07:53:29;;;;;;;65.93;16.85;;;7.50;99.90;;;;;;5049839;28;20189;-69
2022/11/29 07:55:56;;;;;;;75.18;16.88;;;7.60;99.90;;;;;;5048058;28;20052;-69
2022/11/29 07:58:22;;;;;;;68.13;17.17;;;7.60;99.90;;;;;;5049899;28;20029;-69
2022/11/29 08:00:47;;;;;;;56.17;16.02;;;7.60;99.90;;;;;;5030810;28;20055;-69
2022/11/29 08:03:13;;;;;;;62.35;14.93;;;7.60;99.90;;;;;;5029852;28;20053;-68
2022/11/29 08:05:39;;;;;;;62.92;17.77;;;7.60;99.90;;;;;;5040235;28;20133;-68
2022/11/29 08:08:06;;;;;;;65.13;15.77;;;7.60;99.90;;;;;;5031879;28;20581;-69
2022/11/29 08:10:33;;;;;;;55.33;15.82;;;7.60;99.90;;;;;;5067040;28;20052;-69
2022/11/29 08:12:59;;;;;;;59.33;16.05;;;7.60;99.90;;;;;;5031144;28;20044;-69
2022/11/29 08:15:25;;;;;;;68.82;15.82;;;7.60;99.90;;;;;;5049293;28;20040;-69
2022/11/29 08:17:52;;;;;;;55.90;14.93;;;7.60;99.90;;;;;;5031265;28;20479;-69
2022/11/29 08:20:18;;;;;;;58.13;15.82;;;7.60;99.90;;;;;;5038489;28;20511;-69
2022/11/29 08:22:54;;;;;;;58.65;14.55;;;7.60;99.90;;;;;;5025780;28;20049;-69
2022/11/29 08:25:20;;;;;;;61.63;15.57;;;7.70;99.90;;;;;;5025321;28;20140;-68
2022/11/29 08:27:47;;;;;;;58.65;15.13;;;7.70;99.90;;;;;;5027438;28;20136;-69
2022/11/29 08:30:13;;;;;;;47.03;13.75;;;7.70;99.90;;;;;;5024551;28;20057;-68
2022/11/29 08:32:38;;;;;;;62.58;14.75;;;7.80;99.90;;;;;;5043238;28;20057;-69
2022/11/29 08:35:05;;;;;;;48.72;13.93;;;7.80;99.90;;;;;;5015180;28;20045;-69
2022/11/29 08:37:30;;;;;;;49.08;13.55;;;7.80;99.90;;;;;;5037950;28;20081;-68
2022/11/29 08:39:57;;;;;;;60.03;13.43;;;7.80;99.90;;;;;;5024942;28;20146;-68
2022/11/29 08:42:24;;;;;;;62.30;14.93;;;7.80;99.90;;;;;;5031981;28;20080;-68
2022/11/29 08:44:49;;;;;;;53.65;13.20;;;7.80;99.90;;;;;;5026344;28;20155;-68
2022/11/29 08:50:00;;;;;;;36.45;10.02;;;7.90;99.90;;;;;;5022005;28;20136;-69
2022/11/29 08:55:16;;;;;;;28.30;7.97;;;8.00;99.90;;;;;;5028793;28;20046;-69
2022/11/29 08:57:42;;;;;;;39.50;9.88;;;8.00;99.90;;;;;;5003096;28;20088;-69
2022/11/29 09:00:09;;;;;;;22.02;7.63;;;8.00;99.90;;;;;;5022283;28;20060;-69
2022/11/29 09:02:35;;;;;;;42.00;10.57;;;8.00;99.90;;;;;;5024823;28;20064;-68
2022/11/29 09:05:01;;;;;;;29.25;8.52;;;8.00;99.90;;;;;;5024508;28;20126;-68
2022/11/29 09:07:27;;;;;;;29.80;9.00;;;8.10;99.90;;;;;;5011859;28;20049;-69
2022/11/29 09:09:53;;;;;;;29.73;9.68;;;8.00;99.90;;;;;;5047567;28;20045;-69
2022/11/29 09:12:18;;;;;;;27.27;8.45;;;8.00;99.90;;;;;;5009085;28;20102;-69
2022/11/29 09:14:44;;;;;;;34.53;9.48;;;8.00;99.90;;;;;;5023322;28;20049;-69
2022/11/29 09:17:10;;;;;;;35.28;10.38;;;8.00;99.90;;;;;;5022448;28;20053;-69
2022/11/29 09:19:35;;;;;;;37.97;10.35;;;8.00;99.90;;;;;;5024064;28;20046;-69
2022/11/29 09:22:02;;;;;;;35.85;9.85;;;8.00;99.90;;;;;;5023229;28;20061;-69
2022/11/29 09:24:28;;;;;;;34.20;9.00;;;8.10;99.90;;;;;;5025016;28;20049;-69
2022/11/29 09:26:53;;;;;;;33.53;9.75;;;8.10;99.90;;;;;;5023673;28;20372;-69
2022/11/29 09:29:19;;;;;;;29.77;9.98;;;8.10;99.90;;;;;;5024630;28;20041;-69
2022/11/29 09:31:45;;;;;;;33.65;10.73;;;8.10;99.90;;;;;;5026401;28;20052;-69
2022/11/29 09:34:15;;;;;;;27.02;9.35;;;8.20;99.90;;;;;;4993526;28;20150;-69
2022/11/29 09:36:42;;;;;;;32.47;9.38;;;8.20;99.90;;;;;;5020022;28;20152;-69
2022/11/29 09:39:11;;;;;;;29.38;9.73;;;8.20;99.90;;;;;;5011279;28;20068;-69
2022/11/29 09:41:55;;;;;;;32.97;9.15;;;8.20;99.90;;;;;;5027364;28;20056;-69
2022/11/29 09:44:47;;;;;;;48.75;11.00;;;8.20;99.90;;;;;;5027627;28;20049;-69
2022/11/29 09:47:58;;;;;;;25.60;10.10;;;8.30;99.90;;;;;;5005963;28;20156;-69
2022/11/29 09:50:34;;;;;;;27.05;8.35;;;8.30;99.90;;;;;;5005467;28;20168;-69
2022/11/29 09:53:21;;;;;;;35.95;8.88;;;8.30;99.90;;;;;;5008299;28;20116;-69
2022/11/29 09:56:15;;;;;;;40.72;10.05;;;8.30;99.90;;;;;;5016732;28;20459;-69
2022/11/29 09:58:52;;;;;;;33.58;9.57;;;8.40;99.90;;;;;;5028135;28;20491;-69
2022/11/29 10:01:26;;;;;;;43.03;11.98;;;8.40;99.90;;;;;;5027049;28;20464;-69
2022/11/29 10:03:56;;;;;;;36.15;10.30;;;8.40;99.90;;;;;;5028189;28;20118;-69
2022/11/29 10:06:24;;;;;;;46.50;11.32;;;8.40;99.90;;;;;;5025713;28;20048;-69
2022/11/29 10:09:23;;;;;;;44.58;11.77;;;8.50;99.90;;;;;;5026688;28;20049;-69
2022/11/29 10:11:58;;;;;;;39.53;10.68;;;8.50;99.90;;;;;;5037478;28;20629;-69
2022/11/29 10:14:30;;;;;;;51.95;14.27;;;8.50;99.90;;;;;;5025710;28;20051;-70
2022/11/29 10:17:24;;;;;;;56.17;15.48;;;8.50;99.90;;;;;;5027680;28;20045;-69
2022/11/29 10:20:05;;;;;;;75.05;19.58;;;8.60;99.90;;;;;;5042981;28;20048;-69
2022/11/29 10:22:48;;;;;;;64.13;17.58;;;8.60;99.90;;;;;;5010178;28;20072;-69
2022/11/29 10:25:44;;;;;;;79.00;20.83;;;8.60;99.90;;;;;;5027689;28;20061;-69
2022/11/29 10:28:16;;;;;;;88.13;21.77;;;8.60;99.90;;;;;;5025450;28;20061;-69
2022/11/29 10:30:43;;;;;;;84.95;21.38;;;8.60;99.90;;;;;;5009802;28;20052;-69
2022/11/29 10:33:20;;;;;;;89.40;23.60;;;8.60;99.90;;;;;;5027428;28;20080;-69
2022/11/29 10:35:48;;;;;;;89.80;22.85;;;8.60;99.90;;;;;;5026328;28;20518;-69
2022/11/29 10:38:14;;;;;;;86.28;21.00;;;8.60;99.90;;;;;;5010952;28;20298;-69
2022/11/29 10:40:44;;;;;;;98.07;23.77;;;8.60;99.90;;;;;;4994049;28;20499;-69
2022/11/29 10:43:10;;;;;;;90.45;22.95;;;8.50;99.90;;;;;;5028033;28;20045;-69
2022/11/29 10:45:42;;;;;;;105.90;24.33;;;8.50;99.90;;;;;;5010718;28;20099;-69
2022/11/29 10:48:17;;;;;;;99.25;24.02;;;8.50;99.90;;;;;;4989551;28;20057;-69
2022/11/29 10:50:47;;;;;;;107.97;22.67;;;8.50;99.90;;;;;;5019662;28;20053;-69
2022/11/29 10:53:40;;;;;;;91.78;20.60;;;8.50;99.90;;;;;;5021238;28;20049;-70
2022/11/29 10:56:23;;;;;;;82.53;20.08;;;8.50;99.90;;;;;;5001802;28;20049;-69
2022/11/29 10:59:07;;;;;;;101.72;23.65;;;8.60;99.90;;;;;;5026351;28;20057;-69
2022/11/29 11:01:41;;;;;;;92.60;21.70;;;8.60;99.90;;;;;;5024333;28;20045;-69
2022/11/29 11:04:16;;;;;;;103.82;23.38;;;8.60;99.90;;;;;;5024653;28;20480;-69
2022/11/29 11:06:45;;;;;;;85.95;20.75;;;8.60;99.90;;;;;;5022717;28;20064;-69
2022/11/29 11:09:13;;;;;;;79.72;19.75;;;8.60;99.90;;;;;;5020065;28;20054;-69
2022/11/29 11:11:39;;;;;;;81.30;19.95;;;8.60;99.90;;;;;;5022195;28;20678;-69
2022/11/29 11:14:24;;;;;;;87.22;20.10;;;8.60;99.90;;;;;;5021891;28;20103;-69
2022/11/29 11:16:50;;;;;;;85.57;20.40;;;8.60;99.90;;;;;;5026822;28;20049;-69
2022/11/29 11:19:30;;;;;;;82.65;18.63;;;8.50;99.90;;;;;;5009375;28;20449;-69
2022/11/29 11:21:57;;;;;;;;;;;8.50;99.90;;;;;;5041681;28;20048;-69
2022/11/29 11:24:29;;;;;;;119.93;21.13;;;8.40;99.90;;;;;;5022000;28;20366;-69
2022/11/29 11:26:55;;;;;;;152.13;23.27;;;8.40;99.90;;;;;;5052839;28;20064;-69
2022/11/29 11:29:25;;;;;;;105.35;18.40;;;8.40;99.90;;;;;;5045527;28;20501;-69
2022/11/29 11:31:59;;;;;;;119.90;18.85;;;8.30;99.90;;;;;;5047578;28;20571;-69
2022/11/29 11:34:36;;;;;;;111.93;19.02;;;8.30;99.90;;;;;;5047846;28;20569;-69
2022/11/29 11:37:27;;;;;;;105.85;18.83;;;8.20;99.90;;;;;;5047044;28;20063;-69
2022/11/29 11:39:59;;;;;;;85.28;18.50;;;8.20;99.90;;;;;;5030427;28;20055;-69
2022/11/29 11:42:36;;;;;;;47.75;14.30;;;8.10;99.90;;;;;;5064954;28;20051;-69
2022/11/29 11:45:21;;;;;;;103.85;21.25;;;8.10;99.90;;;;;;5047116;28;20114;-69
2022/11/29 11:47:53;;;;;;;73.53;16.65;;;8.10;99.90;;;;;;5049143;28;20128;-69
2022/11/29 11:50:33;;;;;;;98.55;17.50;;;8.10;99.90;;;;;;5044723;28;20048;-69
2022/11/29 11:53:16;;;;;;;132.30;17.83;;;8.10;99.90;;;;;;5048401;28;20055;-69
2022/11/29 11:55:55;;;;;;;77.95;15.02;;;8.00;99.90;;;;;;5030304;28;20048;-70
2022/11/29 11:58:22;;;;;;;73.70;13.95;;;8.00;99.90;;;;;;5045808;28;20048;-69
2022/11/29 12:01:30;;;;;;;48.88;14.52;;;8.00;99.90;;;;;;5030499;28;20055;-69
2022/11/29 12:04:19;;;;;;;51.70;14.45;;;8.00;99.90;;;;;;5038833;28;20102;-68
2022/11/29 12:06:52;;;;;;;62.92;14.23;;;7.90;99.90;;;;;;5041916;28;20095;-69
2022/11/29 12:09:35;;;;;;;50.70;14.93;;;7.80;99.90;;;;;;5060547;28;20040;-68
2022/11/29 12:12:14;;;;;;;35.42;13.95;;;7.90;99.90;;;;;;5044142;28;20049;-69
2022/11/29 12:14:58;;;;;;;47.15;14.32;;;7.90;99.90;;;;;;5045479;28;20045;-68
2022/11/29 12:17:56;;;;;;;68.28;14.00;;;7.80;99.90;;;;;;5048032;28;20131;-68
2022/11/29 12:20:31;;;;;;;83.20;14.63;;;7.80;99.90;;;;;;5063682;28;20121;-68
2022/11/29 12:23:14;;;;;;;62.58;13.60;;;7.70;99.90;;;;;;5062579;28;20057;-68
2022/11/29 12:26:05;;;;;;;82.75;12.13;;;7.70;99.90;;;;;;5044482;28;20063;-69
2022/11/29 12:28:36;;;;;;;110.80;12.68;;;7.70;99.90;;;;;;5031201;28;20063;-68
2022/11/29 12:31:23;;;;;;;85.28;13.60;;;7.60;99.90;;;;;;5047866;28;20109;-68
2022/11/29 12:33:53;;;;;;;57.97;11.32;;;7.50;99.90;;;;;;5049301;28;20425;-68
2022/11/29 12:36:32;;;;;;;54.55;12.57;;;7.40;99.90;;;;;;5048381;28;20091;-69
2022/11/29 12:39:30;;;;;;;56.50;11.55;;;7.40;99.90;;;;;;5066879;28;20493;-69
2022/11/29 12:42:16;;;;;;;53.05;11.32;;;7.40;99.90;;;;;;5053404;28;20502;-69
2022/11/29 12:45:22;;;;;;;72.18;11.88;;;7.40;99.90;;;;;;5046986;28;20106;-69
2022/11/29 12:48:13;;;;;;;57.22;11.20;;;7.50;99.90;;;;;;5031210;28;20109;-69
2022/11/29 12:50:45;;;;;;;71.95;11.13;;;7.40;99.90;;;;;;5065958;28;20053;-68
2022/11/29 12:53:59;;;;;;;52.30;10.57;;;7.40;99.90;;;;;;5065609;28;20045;-68
2022/11/29 12:56:44;;;;;;;97.10;9.90;;;7.30;99.90;;;;;;5033291;28;20052;-69
2022/11/29 12:59:22;;;;;;;109.28;13.50;;;7.20;99.90;;;;;;5046099;28;20059;-68
2022/11/29 13:02:04;;;;;;;86.93;10.90;;;7.20;99.90;;;;;;5029893;28;20040;-67
2022/11/29 13:04:49;;;;;;;65.97;10.77;;;7.20;99.90;;;;;;5048201;28;20517;-67
2022/11/29 13:07:39;;;;;;;72.80;11.05;;;7.20;99.90;;;;;;5046789;28;20056;-67
2022/11/29 13:10:27;;;;;;;53.47;11.05;;;7.30;99.90;;;;;;5050875;28;20045;-67
2022/11/29 13:12:58;;;;;;;64.72;10.77;;;7.30;99.90;;;;;;5069156;28;20048;-66
2022/11/29 13:15:40;;;;;;;80.32;11.13;;;7.30;99.90;;;;;;5067741;28;20157;-65
2022/11/29 13:18:42;;;;;;;53.75;11.05;;;7.30;99.90;;;;;;5050778;28;20143;-65
2022/11/29 13:21:40;;;;;;;81.03;10.77;;;7.30;99.90;;;;;;5068647;28;20464;-66
2022/11/29 13:24:13;;;;;;;68.78;10.55;;;7.30;99.90;;;;;;5034139;28;20506;-65
2022/11/29 13:26:40;;;;;;;46.95;10.35;;;7.20;99.90;;;;;;5065135;28;20045;-65
2022/11/29 13:29:16;;;;;;;64.85;10.00;;;7.20;99.90;;;;;;5033937;28;20049;-65
2022/11/29 13:31:44;;;;;;;59.95;9.52;;;7.20;99.90;;;;;;5042871;28;20056;-65
2022/11/29 13:34:22;;;;;;;43.72;9.05;;;7.20;99.90;;;;;;5059995;28;20056;-65